Time;durP1;ratioP1;P1;durP2;ratioP2;P2;SDS_P1;SDS_P2;PMS_P1;PMS_P2;Temp;Humidity;BMP_temperature;BMP_pressure;BME280_temperature;BME280_humidity;BME280_pressure;Samples;Min_cycle;Max_cycle;Signal;HPM_P1;HPM_P2
2023/06/06 00:01:18;;;;;;;12.32;8.00;;;13.70;99.90;;;;;;4970696;28;20250;-77
2023/06/06 00:03:48;;;;;;;19.58;8.93;;;13.70;99.90;;;;;;4966558;28;20268;-72
2023/06/06 00:06:16;;;;;;;22.75;9.88;;;13.70;99.90;;;;;;4966015;28;20201;-75
2023/06/06 00:08:43;;;;;;;12.80;8.30;;;13.70;99.90;;;;;;4970210;28;20297;-74
2023/06/06 00:11:11;;;;;;;20.08;8.88;;;13.70;99.90;;;;;;4967597;28;20207;-72
2023/06/06 00:13:38;;;;;;;12.80;8.65;;;13.70;99.90;;;;;;4969220;28;20328;-75
2023/06/06 00:16:05;;;;;;;10.90;8.43;;;13.60;99.90;;;;;;4968121;28;20272;-73
2023/06/06 00:18:32;;;;;;;13.55;8.45;;;13.60;99.90;;;;;;4974007;28;20226;-72
2023/06/06 00:21:00;;;;;;;11.35;8.10;;;13.60;99.90;;;;;;4973586;28;20631;-72
2023/06/06 00:23:27;;;;;;;15.48;9.90;;;13.60;99.90;;;;;;4966942;28;20234;-73
2023/06/06 00:25:54;;;;;;;13.73;8.65;;;13.60;99.90;;;;;;4968095;28;20215;-74
2023/06/06 00:28:21;;;;;;;14.73;8.57;;;13.60;99.90;;;;;;4965480;28;20245;-72
2023/06/06 00:30:48;;;;;;;14.07;7.38;;;13.50;99.90;;;;;;4971484;28;20206;-74
2023/06/06 00:33:15;;;;;;;11.52;7.50;;;13.50;99.90;;;;;;4967748;28;20225;-75
2023/06/06 00:35:42;;;;;;;18.63;8.38;;;13.50;99.90;;;;;;4963745;28;20213;-72
2023/06/06 00:38:10;;;;;;;13.63;8.80;;;13.50;99.90;;;;;;4965387;28;20306;-74
2023/06/06 00:40:38;;;;;;;11.93;8.98;;;13.40;99.90;;;;;;4969297;28;20217;-74
2023/06/06 00:43:05;;;;;;;9.77;7.20;;;13.40;99.90;;;;;;4966709;28;20229;-72
2023/06/06 00:45:32;;;;;;;11.32;8.57;;;13.40;99.90;;;;;;4971124;28;20212;-75
2023/06/06 00:47:59;;;;;;;15.40;9.32;;;13.30;99.90;;;;;;4967411;28;20224;-72
2023/06/06 00:50:26;;;;;;;8.90;6.80;;;13.30;99.90;;;;;;4963923;28;20213;-75
2023/06/06 00:52:54;;;;;;;16.77;8.35;;;13.30;99.90;;;;;;4968344;28;20225;-73
2023/06/06 00:55:23;;;;;;;11.82;8.77;;;13.30;99.90;;;;;;4968118;28;20209;-74
2023/06/06 00:57:51;;;;;;;8.95;7.10;;;13.20;99.90;;;;;;4969645;28;20300;-74
2023/06/06 01:00:19;;;;;;;17.17;8.48;;;13.30;99.90;;;;;;4967541;28;20249;-71
2023/06/06 01:02:47;;;;;;;9.23;7.30;;;13.20;99.90;;;;;;4966526;28;20319;-75
2023/06/06 01:05:16;;;;;;;12.13;8.63;;;13.20;99.90;;;;;;4968888;28;20213;-73
2023/06/06 01:07:47;;;;;;;13.02;8.70;;;13.20;99.90;;;;;;4968024;28;20230;-74
2023/06/06 01:10:14;;;;;;;11.57;8.63;;;13.20;99.90;;;;;;4972386;28;20242;-72
2023/06/06 01:12:48;;;;;;;9.07;7.40;;;13.10;99.90;;;;;;4970421;28;20276;-76
2023/06/06 01:15:20;;;;;;;9.88;7.90;;;13.10;99.90;;;;;;4971336;28;20208;-74
2023/06/06 01:17:49;;;;;;;11.20;6.82;;;13.10;99.90;;;;;;4974531;28;20206;-74
2023/06/06 01:20:17;;;;;;;13.73;8.18;;;13.10;99.90;;;;;;4980034;28;20237;-75
2023/06/06 01:22:48;;;;;;;12.57;9.50;;;13.10;99.90;;;;;;4973225;28;20312;-74
2023/06/06 01:25:19;;;;;;;8.98;7.68;;;13.10;99.90;;;;;;4969711;28;20608;-73
2023/06/06 01:27:46;;;;;;;10.40;7.65;;;13.00;99.90;;;;;;4970231;28;20204;-74
2023/06/06 01:30:13;;;;;;;13.07;7.95;;;13.10;99.90;;;;;;4966381;28;20675;-72
2023/06/06 01:32:46;;;;;;;14.32;8.55;;;13.00;99.90;;;;;;4972473;28;20226;-74
2023/06/06 01:35:18;;;;;;;12.25;7.60;;;13.00;99.90;;;;;;4967365;28;20621;-73
2023/06/06 01:37:53;;;;;;;12.43;8.23;;;13.00;99.90;;;;;;4966472;28;20225;-74
2023/06/06 01:40:24;;;;;;;13.85;7.68;;;12.90;99.90;;;;;;4973041;28;20207;-74
2023/06/06 01:42:52;;;;;;;13.82;9.40;;;12.90;99.90;;;;;;4976024;28;20338;-73
2023/06/06 01:45:24;;;;;;;18.10;8.80;;;12.90;99.90;;;;;;4973592;28;20209;-74
2023/06/06 01:47:52;;;;;;;13.85;8.30;;;12.90;99.90;;;;;;4976427;28;20209;-73
2023/06/06 01:50:19;;;;;;;11.32;7.25;;;12.90;99.90;;;;;;4960459;28;20312;-74
2023/06/06 01:52:46;;;;;;;13.85;9.05;;;12.80;99.90;;;;;;4971683;28;20237;-73
2023/06/06 01:55:15;;;;;;;14.80;9.05;;;12.90;99.90;;;;;;4967186;28;20212;-72
2023/06/06 01:57:42;;;;;;;11.32;7.93;;;12.80;99.90;;;;;;4968647;28;20244;-72
2023/06/06 02:00:09;;;;;;;13.48;7.93;;;12.90;99.90;;;;;;4971806;28;20212;-72
2023/06/06 02:02:36;;;;;;;13.27;8.93;;;12.90;99.90;;;;;;4969224;28;20225;-72
2023/06/06 02:05:04;;;;;;;13.43;9.13;;;12.80;99.90;;;;;;4970726;28;20304;-73
2023/06/06 02:07:34;;;;;;;17.65;8.95;;;12.80;99.90;;;;;;4971735;28;20290;-71
2023/06/06 02:10:01;;;;;;;14.50;8.32;;;12.80;99.90;;;;;;4969191;28;20205;-72
2023/06/06 02:12:30;;;;;;;11.13;8.50;;;12.90;99.90;;;;;;4968792;28;20234;-73
2023/06/06 02:14:58;;;;;;;14.27;9.23;;;12.80;99.90;;;;;;4963808;28;20292;-72
2023/06/06 02:17:24;;;;;;;13.20;9.23;;;12.70;99.90;;;;;;4974429;28;20232;-74
2023/06/06 02:19:51;;;;;;;14.50;8.80;;;12.70;99.90;;;;;;4969981;28;20554;-74
2023/06/06 02:22:18;;;;;;;15.07;8.75;;;12.70;99.90;;;;;;4970791;28;20310;-72
2023/06/06 02:24:46;;;;;;;18.38;9.52;;;12.70;99.90;;;;;;4969704;28;20269;-74
2023/06/06 02:27:13;;;;;;;12.75;8.38;;;12.70;99.90;;;;;;4977954;28;20191;-75
2023/06/06 02:29:41;;;;;;;19.08;9.18;;;12.70;99.90;;;;;;4968707;28;20205;-75
2023/06/06 02:32:09;;;;;;;18.85;8.98;;;12.70;99.90;;;;;;4971761;28;20271;-75
2023/06/06 02:34:36;;;;;;;19.85;9.55;;;12.60;99.90;;;;;;4971493;28;20569;-72
2023/06/06 02:37:06;;;;;;;14.80;9.30;;;12.60;99.90;;;;;;4969012;28;20348;-74
2023/06/06 02:39:33;;;;;;;15.30;8.13;;;12.60;99.90;;;;;;4970455;28;20214;-72
2023/06/06 02:42:00;;;;;;;10.93;7.97;;;12.60;99.90;;;;;;4970073;28;20306;-73
2023/06/06 02:44:30;;;;;;;14.48;9.60;;;12.60;99.90;;;;;;4974279;28;20300;-74
2023/06/06 02:46:59;;;;;;;12.77;8.02;;;12.60;99.90;;;;;;4965010;28;20202;-72
2023/06/06 02:49:27;;;;;;;12.35;9.18;;;12.60;99.90;;;;;;4965296;28;20216;-74
2023/06/06 02:51:55;;;;;;;14.20;9.25;;;12.60;99.90;;;;;;4970894;28;20203;-73
2023/06/06 02:54:22;;;;;;;16.88;9.30;;;12.60;99.90;;;;;;4967870;28;20215;-73
2023/06/06 02:56:49;;;;;;;14.23;8.82;;;12.60;99.90;;;;;;4973293;28;20294;-75
2023/06/06 02:59:16;;;;;;;17.10;9.52;;;12.60;99.90;;;;;;4971881;28;20249;-73
2023/06/06 03:01:47;;;;;;;13.50;9.75;;;12.60;99.90;;;;;;4973459;28;20207;-76
2023/06/06 03:04:16;;;;;;;9.68;8.48;;;12.60;99.90;;;;;;4970461;28;20241;-76
2023/06/06 03:06:43;;;;;;;12.52;9.55;;;12.60;99.90;;;;;;4967203;28;20631;-74
2023/06/06 03:09:10;;;;;;;17.92;9.90;;;12.60;99.90;;;;;;4983500;28;20221;-73
2023/06/06 03:11:46;;;;;;;16.77;9.50;;;12.60;99.90;;;;;;4995144;28;20276;-70
2023/06/06 03:14:12;;;;;;;17.90;10.05;;;12.60;99.90;;;;;;4985615;28;20235;-74
2023/06/06 03:16:39;;;;;;;12.60;8.70;;;12.60;99.90;;;;;;4974764;28;20206;-75
2023/06/06 03:19:07;;;;;;;17.65;10.50;;;12.60;99.90;;;;;;4966235;28;20222;-73
2023/06/06 03:21:36;;;;;;;11.48;9.18;;;12.60;99.90;;;;;;4975409;28;20208;-72
2023/06/06 03:24:04;;;;;;;14.88;9.45;;;12.60;99.90;;;;;;4970722;28;20240;-74
2023/06/06 03:26:31;;;;;;;14.40;9.35;;;12.60;99.90;;;;;;4971829;28;20503;-73
2023/06/06 03:28:58;;;;;;;12.95;9.13;;;12.60;99.90;;;;;;4970072;28;20287;-74
2023/06/06 03:31:29;;;;;;;14.07;8.38;;;12.70;99.90;;;;;;4969371;28;20301;-75
2023/06/06 03:33:56;;;;;;;11.73;9.68;;;12.70;99.90;;;;;;4968385;28;20248;-74
2023/06/06 03:36:23;;;;;;;12.15;9.80;;;12.70;99.90;;;;;;4965323;28;20724;-73
2023/06/06 03:38:51;;;;;;;16.77;10.52;;;12.70;99.90;;;;;;4967869;28;20253;-72
2023/06/06 03:41:19;;;;;;;14.38;9.65;;;12.80;99.90;;;;;;4973027;28;20227;-71
2023/06/06 03:43:46;;;;;;;11.00;8.75;;;12.80;99.90;;;;;;4965057;28;21032;-75
2023/06/06 03:46:13;;;;;;;17.08;10.98;;;12.80;99.90;;;;;;4967829;28;20288;-73
2023/06/06 03:48:40;;;;;;;11.80;7.53;;;12.80;99.90;;;;;;4972696;28;20253;-72
2023/06/06 03:51:07;;;;;;;14.00;9.45;;;12.90;99.90;;;;;;4967258;28;20208;-72
2023/06/06 03:53:33;;;;;;;15.95;9.27;;;12.90;99.90;;;;;;4973782;28;20231;-74
2023/06/06 03:56:02;;;;;;;12.98;10.07;;;13.00;99.90;;;;;;4967726;28;20293;-73
2023/06/06 03:58:30;;;;;;;12.75;8.60;;;13.00;99.90;;;;;;4976723;28;20226;-76
2023/06/06 04:00:59;;;;;;;14.85;9.35;;;13.10;99.90;;;;;;4976666;28;20212;-73
2023/06/06 04:03:26;;;;;;;12.20;8.80;;;13.20;99.90;;;;;;4967860;28;20237;-72
2023/06/06 04:05:53;;;;;;;17.50;9.52;;;13.30;99.90;;;;;;4974808;28;20214;-75
2023/06/06 04:08:20;;;;;;;10.73;9.25;;;13.50;99.90;;;;;;4976236;28;20222;-74
2023/06/06 04:10:47;;;;;;;11.68;8.70;;;13.90;99.90;;;;;;4968371;28;20653;-73
2023/06/06 04:13:16;;;;;;;9.52;7.45;;;14.50;99.90;;;;;;4973511;28;20366;-74
2023/06/06 04:15:43;;;;;;;12.40;7.93;;;15.20;99.90;;;;;;4967390;28;20214;-73
2023/06/06 04:18:09;;;;;;;9.25;7.45;;;15.70;99.90;;;;;;4975840;28;20716;-74
2023/06/06 04:20:36;;;;;;;10.17;7.40;;;16.40;99.90;;;;;;4968285;28;20292;-76
2023/06/06 04:23:03;;;;;;;10.77;8.00;;;16.90;99.90;;;;;;4973077;28;20878;-72
2023/06/06 04:25:30;;;;;;;9.43;7.03;;;17.40;99.90;;;;;;4972678;28;20472;-74
2023/06/06 04:28:00;;;;;;;14.10;7.40;;;17.80;99.90;;;;;;4968800;28;20913;-76
2023/06/06 04:30:29;;;;;;;10.20;7.87;;;18.30;99.90;;;;;;4969440;28;20457;-72
2023/06/06 04:32:56;;;;;;;13.87;7.47;;;18.90;99.90;;;;;;4966221;28;20520;-75
2023/06/06 04:35:23;;;;;;;12.17;7.83;;;19.30;99.90;;;;;;4971901;28;20863;-73
2023/06/06 04:37:54;;;;;;;11.27;7.90;;;19.70;99.90;;;;;;4966973;28;20522;-73
2023/06/06 04:40:21;;;;;;;9.80;7.23;;;19.90;99.90;;;;;;4975899;28;20514;-75
2023/06/06 04:42:50;;;;;;;13.10;7.40;;;20.30;99.90;;;;;;4974266;28;20473;-74
2023/06/06 04:45:17;;;;;;;10.73;8.13;;;20.60;99.90;;;;;;4971326;28;20618;-74
2023/06/06 04:47:45;;;;;;;10.03;6.97;;;21.10;99.90;;;;;;4967050;28;20889;-73
2023/06/06 04:50:12;;;;;;;9.63;6.73;;;21.50;99.90;;;;;;4967085;28;20477;-74
2023/06/06 04:52:39;;;;;;;10.67;7.57;;;21.80;99.90;;;;;;4967322;28;20559;-72
2023/06/06 04:55:08;;;;;;;9.80;5.80;;;22.30;99.00;;;;;;4965440;28;20450;-73
2023/06/06 04:57:34;;;;;;;10.00;6.83;;;22.60;97.80;;;;;;4968602;28;20453;-74
2023/06/06 05:00:05;;;;;;;9.80;6.60;;;22.70;96.00;;;;;;4973082;28;20450;-71
2023/06/06 05:02:32;;;;;;;9.17;6.63;;;23.00;95.40;;;;;;4981139;28;20486;-73
2023/06/06 05:05:01;;;;;;;11.63;6.50;;;23.20;94.40;;;;;;4959707;28;20549;-72
2023/06/06 05:07:29;;;;;;;8.43;7.07;;;23.60;93.70;;;;;;4966850;28;20450;-75
2023/06/06 05:09:56;;;;;;;9.57;7.30;;;23.70;92.90;;;;;;4968160;28;20437;-73
2023/06/06 05:12:24;;;;;;;14.20;7.10;;;23.90;92.50;;;;;;4968982;28;20553;-74
2023/06/06 05:14:51;;;;;;;13.60;8.43;;;24.10;91.80;;;;;;4968765;28;20536;-71
2023/06/06 05:17:20;;;;;;;9.50;6.60;;;24.20;91.60;;;;;;4971502;28;20465;-74
2023/06/06 05:19:47;;;;;;;9.13;7.00;;;24.40;91.30;;;;;;4970957;28;20568;-72
2023/06/06 05:22:15;;;;;;;9.83;7.33;;;24.30;91.50;;;;;;4974918;28;20470;-73
2023/06/06 05:24:43;;;;;;;9.57;6.20;;;24.50;91.40;;;;;;4964050;28;20450;-73
2023/06/06 05:27:10;;;;;;;10.20;7.30;;;24.60;90.90;;;;;;4966871;28;20530;-73
2023/06/06 05:29:37;;;;;;;8.70;6.53;;;24.80;90.60;;;;;;4966364;28;20514;-74
2023/06/06 05:32:05;;;;;;;14.03;6.43;;;24.90;90.40;;;;;;4964655;28;20594;-72
2023/06/06 05:34:32;;;;;;;10.43;6.93;;;25.10;90.00;;;;;;4972793;28;20446;-76
2023/06/06 05:36:59;;;;;;;12.83;8.23;;;25.10;90.00;;;;;;4970545;28;20453;-72
2023/06/06 05:39:28;;;;;;;13.57;6.50;;;25.40;89.30;;;;;;4979382;28;21042;-75
2023/06/06 05:41:55;;;;;;;10.97;7.20;;;25.70;88.20;;;;;;4967898;28;20459;-75
2023/06/06 05:44:23;;;;;;;8.10;6.80;;;25.80;87.70;;;;;;4973467;28;20452;-75
2023/06/06 05:46:54;;;;;;;7.27;5.63;;;26.00;86.90;;;;;;4975065;28;20445;-72
2023/06/06 05:49:22;;;;;;;13.90;6.33;;;26.40;86.60;;;;;;4964814;28;20451;-73
2023/06/06 05:51:49;;;;;;;7.60;6.50;;;26.60;85.70;;;;;;4971227;28;20447;-72
2023/06/06 05:54:16;;;;;;;8.73;7.20;;;27.00;84.60;;;;;;4968839;28;20441;-73
2023/06/06 05:56:45;;;;;;;9.43;6.03;;;27.40;83.30;;;;;;4966072;28;20476;-75
2023/06/06 05:59:12;;;;;;;13.47;7.47;;;27.80;82.50;;;;;;4968468;28;20531;-76
2023/06/06 06:01:45;;;;;;;14.87;8.47;;;28.10;81.30;;;;;;4968288;28;20453;-75
2023/06/06 06:04:12;;;;;;;9.47;7.30;;;28.20;80.30;;;;;;4969320;28;20461;-73
2023/06/06 06:06:40;;;;;;;13.07;7.60;;;28.50;79.60;;;;;;4970268;28;20438;-72
2023/06/06 06:09:06;;;;;;;8.73;6.23;;;28.60;79.40;;;;;;4968907;28;20532;-74
2023/06/06 06:11:33;;;;;;;12.77;6.57;;;29.00;78.20;;;;;;4971192;28;20445;-76
2023/06/06 06:14:02;;;;;;;9.27;5.80;;;29.20;77.80;;;;;;4966941;28;20549;-74
2023/06/06 06:16:29;;;;;;;8.87;5.93;;;29.30;77.10;;;;;;4971340;28;20508;-76
2023/06/06 06:18:55;;;;;;;11.07;6.23;;;29.60;76.30;;;;;;4973304;28;20564;-74
2023/06/06 06:21:24;;;;;;;9.23;6.73;;;29.60;76.20;;;;;;4968816;28;20536;-75
2023/06/06 06:23:51;;;;;;;10.60;7.80;;;29.90;75.90;;;;;;4975614;28;20548;-74
2023/06/06 06:26:18;;;;;;;7.60;5.47;;;30.10;75.00;;;;;;4971946;28;20921;-74
2023/06/06 06:28:46;;;;;;;12.10;7.37;;;30.30;74.10;;;;;;4971283;28;20439;-73
2023/06/06 06:31:15;;;;;;;17.03;7.60;;;30.10;73.80;;;;;;4968625;28;20451;-75
2023/06/06 06:33:42;;;;;;;11.30;7.00;;;30.30;74.70;;;;;;4969919;28;20578;-74
2023/06/06 06:36:09;;;;;;;13.90;6.97;;;30.40;73.60;;;;;;4974097;28;20537;-72
2023/06/06 06:38:36;;;;;;;10.40;7.17;;;30.40;73.50;;;;;;4970424;28;20473;-73
2023/06/06 06:41:03;;;;;;;8.20;6.43;;;30.50;73.40;;;;;;4969964;28;20538;-74
2023/06/06 06:43:30;;;;;;;9.57;6.90;;;30.40;73.20;;;;;;4967872;28;20478;-73
2023/06/06 06:45:57;;;;;;;9.90;6.70;;;30.60;73.30;;;;;;4972917;28;20975;-75
2023/06/06 06:48:25;;;;;;;9.60;6.50;;;30.80;73.20;;;;;;4969913;28;20532;-73
2023/06/06 06:50:53;;;;;;;8.23;6.47;;;30.90;72.40;;;;;;4979342;28;20438;-72
2023/06/06 06:53:23;;;;;;;8.63;7.50;;;31.30;71.90;;;;;;4980026;28;20468;-73
2023/06/06 06:55:52;;;;;;;12.33;7.10;;;31.40;71.30;;;;;;4972288;28;20774;-74
2023/06/06 06:58:25;;;;;;;10.50;7.20;;;31.10;71.60;;;;;;4968748;28;20450;-75
2023/06/06 07:00:52;;;;;;;9.43;6.57;;;31.10;71.90;;;;;;4963857;28;20485;-72
2023/06/06 07:03:21;;;;;;;8.37;5.80;;;31.10;71.20;;;;;;4964556;28;20526;-74
2023/06/06 07:05:49;;;;;;;7.80;7.03;;;31.50;70.90;;;;;;4968289;28;20454;-71
2023/06/06 07:08:17;;;;;;;10.37;7.13;;;31.60;69.90;;;;;;4971412;28;20941;-74
2023/06/06 07:10:44;;;;;;;13.40;11.73;;;31.50;70.00;;;;;;4968699;28;20504;-74
2023/06/06 07:13:14;;;;;;;9.40;7.20;;;31.50;70.10;;;;;;4974703;28;20525;-75
2023/06/06 07:15:41;;;;;;;10.87;7.00;;;31.30;70.60;;;;;;4971276;28;20576;-73
2023/06/06 07:18:10;;;;;;;8.30;6.17;;;31.60;69.90;;;;;;4966617;28;20446;-73
2023/06/06 07:20:37;;;;;;;8.87;6.70;;;31.80;69.40;;;;;;4975604;28;20473;-73
2023/06/06 07:23:06;;;;;;;11.97;7.10;;;31.80;69.20;;;;;;4967241;28;20566;-72
2023/06/06 07:25:33;;;;;;;10.00;7.17;;;31.50;69.20;;;;;;4971004;28;20464;-74
2023/06/06 07:28:00;;;;;;;8.00;6.50;;;31.50;69.70;;;;;;4965070;28;20447;-73
2023/06/06 07:30:27;;;;;;;8.73;5.90;;;31.60;69.40;;;;;;4970172;28;20449;-73
2023/06/06 07:32:54;;;;;;;8.80;6.50;;;31.80;68.60;;;;;;4974339;28;20564;-73
2023/06/06 07:35:21;;;;;;;15.40;7.33;;;32.00;68.30;;;;;;4972179;28;20925;-75
2023/06/06 07:37:48;;;;;;;8.70;7.50;;;32.10;67.40;;;;;;4975537;28;20458;-73
2023/06/06 07:40:17;;;;;;;9.03;5.90;;;32.70;66.40;;;;;;4968524;28;20569;-74
2023/06/06 07:42:44;;;;;;;8.03;5.97;;;33.10;65.70;;;;;;4969747;28;20473;-74
2023/06/06 07:45:12;;;;;;;7.00;6.20;;;33.10;65.20;;;;;;4968009;28;20513;-72
2023/06/06 07:47:40;;;;;;;9.30;6.83;;;33.20;64.80;;;;;;4972238;28;20473;-72
2023/06/06 07:50:07;;;;;;;7.97;6.10;;;33.50;64.50;;;;;;4965130;28;20437;-73
2023/06/06 07:52:38;;;;;;;6.93;6.17;;;33.70;64.20;;;;;;4970732;28;20469;-71
2023/06/06 07:55:06;;;;;;;9.27;7.00;;;33.70;63.50;;;;;;4968043;28;20548;-73
2023/06/06 07:57:40;;;;;;;11.40;6.30;;;33.60;62.80;;;;;;4964425;28;20812;-72
2023/06/06 08:00:12;;;;;;;8.57;6.00;;;33.20;63.20;;;;;;4964727;28;20510;-71
2023/06/06 08:02:39;;;;;;;11.87;7.20;;;33.40;63.80;;;;;;4965389;28;20474;-73
2023/06/06 08:05:06;;;;;;;8.30;5.07;;;33.40;63.60;;;;;;4967165;28;20851;-72
2023/06/06 08:07:35;;;;;;;6.70;5.50;;;33.40;63.60;;;;;;4968828;28;20449;-74
2023/06/06 08:10:02;;;;;;;6.57;5.53;;;33.70;62.50;;;;;;4962595;28;20517;-74
2023/06/06 08:12:29;;;;;;;8.37;6.50;;;34.10;62.20;;;;;;4968440;28;20508;-73
2023/06/06 08:14:57;;;;;;;20.03;6.33;;;34.50;61.60;;;;;;4962414;28;20447;-71
2023/06/06 08:17:24;;;;;;;8.00;7.00;;;34.50;60.50;;;;;;4965290;28;20557;-74
2023/06/06 08:19:51;;;;;;;7.30;6.47;;;34.60;60.20;;;;;;4969643;28;20564;-74
2023/06/06 08:22:18;;;;;;;15.00;6.00;;;34.30;60.10;;;;;;4967433;28;20838;-74
2023/06/06 08:24:46;;;;;;;9.13;5.20;;;34.40;60.30;;;;;;4965580;28;20450;-75
2023/06/06 08:27:13;;;;;;;9.57;6.50;;;34.90;59.80;;;;;;4967095;28;20477;-74
2023/06/06 08:29:40;;;;;;;7.30;4.57;;;34.80;59.30;;;;;;4962122;28;20528;-74
2023/06/06 08:32:12;;;;;;;12.40;5.73;;;34.80;59.50;;;;;;4962391;28;20466;-73
2023/06/06 08:34:41;;;;;;;10.97;5.60;;;34.80;59.30;;;;;;4965974;28;20477;-75
2023/06/06 08:37:07;;;;;;;12.13;6.17;;;34.90;59.20;;;;;;4963415;28;20442;-74
2023/06/06 08:39:34;;;;;;;9.87;5.70;;;34.80;59.10;;;;;;4967028;28;20486;-74
2023/06/06 08:42:02;;;;;;;11.23;7.10;;;34.50;59.80;;;;;;4973412;28;20474;-74
2023/06/06 08:44:29;;;;;;;8.77;5.70;;;34.40;59.90;;;;;;4971675;28;20481;-75
2023/06/06 08:46:59;;;;;;;14.00;6.37;;;34.00;59.50;;;;;;4967124;28;20506;-72
2023/06/06 08:49:31;;;;;;;8.30;6.10;;;34.00;59.60;;;;;;4980380;28;20441;-72
2023/06/06 08:52:01;;;;;;;7.60;5.60;;;34.20;60.40;;;;;;4971003;28;20882;-73
2023/06/06 08:54:28;;;;;;;11.33;6.37;;;34.40;59.70;;;;;;4967619;28;20453;-74
2023/06/06 08:56:56;;;;;;;10.50;6.40;;;34.20;60.40;;;;;;4976235;28;20450;-71
2023/06/06 08:59:25;;;;;;;7.50;5.07;;;34.00;60.40;;;;;;4976375;28;20493;-71
2023/06/06 09:01:54;;;;;;;7.00;5.40;;;34.40;59.90;;;;;;4968940;28;20496;-70
2023/06/06 09:04:23;;;;;;;9.17;5.93;;;34.40;59.70;;;;;;4965777;28;20545;-73
2023/06/06 09:06:56;;;;;;;6.90;5.40;;;34.50;59.60;;;;;;4967490;28;20454;-73
2023/06/06 09:09:23;;;;;;;7.97;5.57;;;34.80;59.10;;;;;;4965027;28;20453;-71
2023/06/06 09:11:50;;;;;;;6.07;5.20;;;35.20;58.40;;;;;;4967602;28;20454;-73
2023/06/06 09:14:17;;;;;;;10.07;5.20;;;35.70;58.00;;;;;;4964048;28;20502;-74
2023/06/06 09:16:44;;;;;;;8.53;5.00;;;35.90;57.30;;;;;;4967627;28;20817;-75
2023/06/06 09:19:11;;;;;;;10.20;6.47;;;36.30;57.20;;;;;;4969739;28;20960;-73
2023/06/06 09:21:39;;;;;;;7.80;5.73;;;36.10;57.10;;;;;;4967722;28;20449;-72
2023/06/06 09:24:08;;;;;;;6.87;5.63;;;35.60;57.60;;;;;;4972507;28;20446;-74
2023/06/06 09:26:35;;;;;;;6.80;4.93;;;35.00;58.00;;;;;;4970628;28;20485;-74
2023/06/06 09:29:08;;;;;;;11.60;5.40;;;34.90;58.20;;;;;;4969715;28;20540;-72
2023/06/06 09:31:38;;;;;;;10.37;5.53;;;34.80;58.50;;;;;;4965851;28;20456;-73
2023/06/06 09:34:05;;;;;;;8.87;4.90;;;34.20;58.80;;;;;;4971931;28;20560;-71
2023/06/06 09:36:32;;;;;;;7.33;5.00;;;34.30;59.00;;;;;;4962320;28;20992;-75
2023/06/06 09:39:05;;;;;;;6.63;5.67;;;34.70;57.90;;;;;;4969939;28;21043;-74
2023/06/06 09:41:40;;;;;;;12.47;5.90;;;34.40;58.50;;;;;;4965642;28;20524;-73
2023/06/06 09:44:18;;;;;;;11.30;5.60;;;34.40;58.90;;;;;;4967478;28;20479;-72
2023/06/06 09:46:45;;;;;;;10.97;6.33;;;33.80;59.30;;;;;;4965931;28;20445;-72
2023/06/06 09:49:12;;;;;;;6.77;5.03;;;33.60;59.70;;;;;;4967279;28;20441;-75
2023/06/06 09:51:42;;;;;;;11.77;5.20;;;33.70;59.00;;;;;;4956197;28;20447;-74
2023/06/06 09:54:10;;;;;;;12.30;6.00;;;33.70;58.40;;;;;;4970133;28;20937;-72
2023/06/06 09:56:40;;;;;;;10.93;5.67;;;33.60;58.30;;;;;;4966643;28;20446;-75
2023/06/06 09:59:08;;;;;;;5.17;4.17;;;33.80;59.00;;;;;;4968760;28;20441;-74
2023/06/06 10:01:42;;;;;;;6.63;5.70;;;34.30;57.70;;;;;;4962580;28;20454;-73
2023/06/06 10:04:10;;;;;;;6.60;5.20;;;34.10;57.60;;;;;;4962143;28;20862;-75
2023/06/06 10:06:39;;;;;;;5.97;4.27;;;33.80;58.00;;;;;;4964132;28;20934;-75
2023/06/06 10:09:06;;;;;;;10.37;5.33;;;33.50;58.30;;;;;;4968934;28;20454;-73
2023/06/06 10:11:34;;;;;;;9.63;4.17;;;33.60;58.00;;;;;;4965921;28;20449;-73
2023/06/06 10:14:03;;;;;;;5.80;4.77;;;33.90;58.00;;;;;;4961981;28;21050;-73
2023/06/06 10:16:31;;;;;;;5.63;3.80;;;33.80;57.80;;;;;;4973163;28;20449;-72
2023/06/06 10:18:58;;;;;;;6.77;4.70;;;33.90;57.90;;;;;;4967233;28;21043;-72
2023/06/06 10:21:26;;;;;;;5.40;4.40;;;34.10;57.60;;;;;;4971128;28;20473;-72
2023/06/06 10:23:54;;;;;;;9.40;5.23;;;33.60;58.00;;;;;;4966530;28;20470;-72
2023/06/06 10:26:26;;;;;;;6.17;4.00;;;33.10;58.90;;;;;;4968922;28;20450;-74
2023/06/06 10:29:03;;;;;;;8.20;5.30;;;33.40;59.00;;;;;;4973288;28;21031;-74
2023/06/06 10:31:37;;;;;;;6.70;4.57;;;33.30;57.90;;;;;;4971861;28;20437;-75
2023/06/06 10:34:09;;;;;;;7.67;4.37;;;32.80;58.50;;;;;;4970830;28;20797;-74
2023/06/06 10:36:43;;;;;;;7.20;5.30;;;32.30;59.10;;;;;;4971610;28;20461;-74
2023/06/06 10:39:20;;;;;;;13.67;5.70;;;31.80;59.90;;;;;;4972206;28;20964;-73
2023/06/06 10:41:55;;;;;;;7.37;4.73;;;31.10;61.40;;;;;;4968028;28;20453;-72
2023/06/06 10:44:26;;;;;;;6.43;4.70;;;30.40;62.60;;;;;;4968386;28;20579;-74
2023/06/06 10:47:27;;;;;;;8.37;5.80;;;30.00;63.40;;;;;;4975908;28;20446;-74
2023/06/06 10:50:21;;;;;;;5.40;4.90;;;29.70;64.80;;;;;;4970529;28;20447;-73
2023/06/06 10:52:58;;;;;;;10.73;5.80;;;29.40;65.40;;;;;;4989256;28;20477;-71
2023/06/06 10:55:45;;;;;;;6.33;4.97;;;29.10;66.30;;;;;;4978066;28;20932;-73
2023/06/06 10:58:19;;;;;;;8.00;4.73;;;29.10;65.80;;;;;;4970450;28;20489;-73
2023/06/06 11:00:49;;;;;;;9.57;5.50;;;29.00;66.50;;;;;;4973907;28;20530;-73
2023/06/06 11:03:17;;;;;;;6.13;4.40;;;28.90;66.70;;;;;;4969099;28;20470;-71
2023/06/06 11:06:13;;;;;;;10.83;5.80;;;28.70;67.30;;;;;;4973896;28;20876;-71
2023/06/06 11:08:42;;;;;;;4.83;3.73;;;28.50;67.90;;;;;;4970792;28;20447;-74
2023/06/06 11:11:20;;;;;;;5.87;4.73;;;28.40;67.70;;;;;;4971803;28;20533;-73
2023/06/06 11:13:53;;;;;;;8.70;4.40;;;28.20;68.50;;;;;;4968724;28;20524;-73
2023/06/06 11:16:47;;;;;;;8.40;5.00;;;28.30;68.40;;;;;;4969181;28;20455;-72
2023/06/06 11:19:16;;;;;;;18.93;5.30;;;28.30;68.30;;;;;;4967629;28;20453;-73
2023/06/06 11:21:46;;;;;;;7.30;4.93;;;28.10;68.40;;;;;;4968507;28;20976;-73
2023/06/06 11:24:13;;;;;;;11.13;4.93;;;28.10;68.50;;;;;;4969907;28;20447;-74
2023/06/06 11:26:41;;;;;;;5.70;4.40;;;28.20;68.70;;;;;;4970347;28;20441;-72
2023/06/06 11:29:10;;;;;;;4.40;4.00;;;28.20;67.70;;;;;;4970093;28;20454;-72
2023/06/06 11:31:39;;;;;;;6.13;4.37;;;28.40;67.80;;;;;;4971463;28;20520;-73
2023/06/06 11:34:08;;;;;;;14.33;8.77;;;28.40;67.40;;;;;;4964966;28;20913;-74
2023/06/06 11:36:36;;;;;;;12.10;6.23;;;28.30;67.60;;;;;;4968026;28;20494;-74
2023/06/06 11:39:05;;;;;;;8.63;5.93;;;28.30;67.60;;;;;;4969611;28;20457;-73
2023/06/06 11:41:36;;;;;;;6.43;3.97;;;28.10;68.10;;;;;;4966310;28;20505;-72
2023/06/06 11:44:03;;;;;;;6.90;5.00;;;28.00;67.80;;;;;;4972750;28;20513;-72
2023/06/06 11:46:31;;;;;;;6.27;5.40;;;27.80;68.70;;;;;;4969912;28;20453;-73
2023/06/06 11:48:59;;;;;;;4.93;4.43;;;27.80;68.80;;;;;;4965585;28;20540;-74
2023/06/06 11:51:26;;;;;;;9.30;5.00;;;27.70;69.40;;;;;;4966666;28;20446;-74
2023/06/06 11:53:53;;;;;;;7.27;4.43;;;27.60;69.20;;;;;;4968699;28;20520;-72
2023/06/06 11:56:21;;;;;;;7.93;4.43;;;27.60;69.50;;;;;;4969128;28;20537;-74
2023/06/06 11:58:48;;;;;;;5.73;4.50;;;27.70;70.00;;;;;;4965455;28;20471;-73
2023/06/06 12:01:15;;;;;;;6.20;3.97;;;27.70;68.60;;;;;;4965167;28;20490;-73
2023/06/06 12:03:43;;;;;;;5.80;4.57;;;27.70;68.20;;;;;;4963842;28;20552;-74
2023/06/06 12:06:12;;;;;;;5.90;4.93;;;27.70;68.10;;;;;;4962763;28;20447;-73
2023/06/06 12:08:39;;;;;;;7.23;4.10;;;27.80;68.30;;;;;;4967684;28;20551;-74
2023/06/06 12:11:26;;;;;;;8.53;4.87;;;27.80;68.70;;;;;;4967148;28;20444;-72
2023/06/06 12:13:54;;;;;;;7.50;5.07;;;27.80;68.20;;;;;;4969843;28;20944;-73
2023/06/06 12:16:22;;;;;;;9.63;5.93;;;27.70;68.70;;;;;;4972898;28;20446;-73
2023/06/06 12:18:50;;;;;;;7.20;4.50;;;27.50;68.80;;;;;;4972003;28;20448;-73
2023/06/06 12:21:19;;;;;;;6.50;4.50;;;27.50;69.50;;;;;;4968603;28;20655;-73
2023/06/06 12:23:47;;;;;;;7.30;4.27;;;27.60;68.80;;;;;;4972411;28;20572;-75
2023/06/06 12:26:16;;;;;;;7.10;5.60;;;27.60;69.00;;;;;;4967262;28;20443;-74
2023/06/06 12:28:57;;;;;;;7.10;4.50;;;27.50;69.00;;;;;;4969782;28;20442;-71
2023/06/06 12:31:25;;;;;;;11.50;5.83;;;27.50;70.30;;;;;;4967245;28;20814;-74
2023/06/06 12:33:53;;;;;;;6.23;4.20;;;27.50;69.50;;;;;;4969946;28;20928;-73
2023/06/06 12:36:24;;;;;;;5.83;3.90;;;27.50;69.40;;;;;;4966512;28;20481;-73
2023/06/06 12:38:59;;;;;;;8.60;4.20;;;27.50;69.10;;;;;;4972177;28;20449;-72
2023/06/06 12:41:39;;;;;;;4.80;4.23;;;27.60;68.80;;;;;;4964610;28;20481;-71
2023/06/06 12:44:08;;;;;;;9.20;4.90;;;27.60;69.10;;;;;;4968864;28;20544;-72
2023/06/06 12:46:35;;;;;;;5.17;3.90;;;27.50;68.80;;;;;;4967633;28;20454;-71
2023/06/06 12:49:02;;;;;;;8.63;4.10;;;27.50;68.90;;;;;;4964138;28;20897;-71